Map

Track Data

SID SEASON NUMBER BASIN SUBBASIN NAME ISO_TIME NATURE LAT LON WMO_WIND WMO_PRES WMO_AGENCY TRACK_TYPE DIST2LAND LANDFALL IFLAG USA_AGENCY USA_ATCF_ID USA_LAT USA_LON USA_RECORD USA_STATUS USA_WIND USA_PRES USA_SSHS USA_R34_NE USA_R34_SE USA_R34_SW USA_R34_NW USA_R50_NE USA_R50_SE USA_R50_SW USA_R50_NW USA_R64_NE USA_R64_SE USA_R64_SW USA_R64_NW USA_POCI USA_ROCI USA_RMW USA_EYE TOKYO_LAT TOKYO_LON TOKYO_GRADE TOKYO_WIND TOKYO_PRES TOKYO_R50_DIR TOKYO_R50_LONG TOKYO_R50_SHORT TOKYO_R30_DIR TOKYO_R30_LONG TOKYO_R30_SHORT TOKYO_LAND CMA_LAT CMA_LON CMA_CAT CMA_WIND CMA_PRES HKO_LAT HKO_LON HKO_CAT HKO_WIND HKO_PRES NEWDELHI_LAT NEWDELHI_LON NEWDELHI_GRADE NEWDELHI_WIND NEWDELHI_PRES NEWDELHI_CI NEWDELHI_DP NEWDELHI_POCI REUNION_LAT REUNION_LON REUNION_TYPE REUNION_WIND REUNION_PRES REUNION_TNUM REUNION_CI REUNION_RMW REUNION_R34_NE REUNION_R34_SE REUNION_R34_SW REUNION_R34_NW REUNION_R50_NE REUNION_R50_SE REUNION_R50_SW REUNION_R50_NW REUNION_R64_NE REUNION_R64_SE REUNION_R64_SW REUNION_R64_NW BOM_LAT BOM_LON BOM_TYPE BOM_WIND BOM_PRES BOM_TNUM BOM_CI BOM_RMW BOM_R34_NE BOM_R34_SE BOM_R34_SW BOM_R34_NW BOM_R50_NE BOM_R50_SE BOM_R50_SW BOM_R50_NW BOM_R64_NE BOM_R64_SE BOM_R64_SW BOM_R64_NW BOM_ROCI BOM_POCI BOM_EYE BOM_POS_METHOD BOM_PRES_METHOD NADI_LAT NADI_LON NADI_CAT NADI_WIND NADI_PRES WELLINGTON_LAT WELLINGTON_LON WELLINGTON_WIND WELLINGTON_PRES DS824_LAT DS824_LON DS824_STAGE DS824_WIND DS824_PRES TD9636_LAT TD9636_LON TD9636_STAGE TD9636_WIND TD9636_PRES TD9635_LAT TD9635_LON TD9635_WIND TD9635_PRES TD9635_ROCI NEUMANN_LAT NEUMANN_LON NEUMANN_CLASS NEUMANN_WIND NEUMANN_PRES MLC_LAT MLC_LON MLC_CLASS MLC_WIND MLC_PRES USA_GUST BOM_GUST BOM_GUST_PER REUNION_GUST REUNION_GUST_PER USA_SEAHGT USA_SEARAD_NE USA_SEARAD_SE USA_SEARAD_SW USA_SEARAD_NW STORM_SPEED STORM_DIR
1968295N11089 1968 109 NI BB NOT_NAMED 1968-10-20 18:00:00 TS 10.7000 88.5000 main 813 803 O________O____ jtwc_io IO101968 10.7000 88.5000 -1 10.7000 88.5000 TC 2 308
1968295N11089 1968 109 NI BB NOT_NAMED 1968-10-20 21:00:00 TS 10.7600 88.4175 main 808 798 P________P____ IO101968 10.7600 88.4175 -1 10.7600 88.4175 TC 2 297
1968295N11089 1968 109 NI BB NOT_NAMED 1968-10-21 00:00:00 TS 10.8000 88.3000 main 798 779 O________O____ jtwc_io IO101968 10.8000 88.3000 -1 10.8000 88.3000 TC 25 3 279
1968295N11089 1968 109 NI BB NOT_NAMED 1968-10-21 03:00:00 TS 10.8067 88.1200 main 779 759 P________PO___ IO101968 10.8075 88.1225 -1 10.8075 88.1225 TC 25 10.8000 88.1000 1 4 270
1968295N11089 1968 109 NI BB NOT_NAMED 1968-10-21 06:00:00 TS 10.8001 87.8913 main 759 739 O________OP___ jtwc_io IO101968 10.8000 87.9000 -1 10.8000 87.9000 TC 25 10.8003 87.8563 1 5 269
1968295N11089 1968 109 NI BB NOT_NAMED 1968-10-21 09:00:00 TS 10.8001 87.6418 main 729 709 P________PP___ IO101968 10.8000 87.6500 -1 10.8000 87.6500 TC 25 10.8003 87.6200 1 5 270
1968295N11089 1968 109 NI BB NOT_NAMED 1968-10-21 12:00:00 TS 10.8001 87.3996 main 709 690 O________OP___ jtwc_io IO101968 10.8000 87.4000 -1 10.8000 87.4000 TC 25 10.8002 87.3988 1 4 270
1968295N11089 1968 109 NI BB NOT_NAMED 1968-10-21 15:00:00 TS 10.8000 87.1950 main 690 670 P________PO___ IO101968 10.8000 87.1925 -1 10.8000 87.1925 TC 25 10.8000 87.2000 1 4 270
1968295N11089 1968 109 NI BB NOT_NAMED 1968-10-21 18:00:00 TS 10.7999 87.0084 main 670 650 O________OP___ jtwc_io IO101968 10.8000 87.0000 -1 10.8000 87.0000 TC 25 10.7997 87.0253 1 4 270
1968295N11089 1968 109 NI BB NOT_NAMED 1968-10-21 21:00:00 TS 10.7999 86.8225 main 650 630 P________PP___ IO101968 10.8000 86.8075 -1 10.8000 86.8075 TC 25 10.7996 86.8525 1 4 270
1968295N11089 1968 109 NI BB NOT_NAMED 1968-10-22 00:00:00 TS 10.7999 86.6178 main 630 610 O________OP___ jtwc_io IO101968 10.8000 86.6000 -1 10.8000 86.6000 TC 25 10.7997 86.6534 1 4 270
1968295N11089 1968 109 NI BB NOT_NAMED 1968-10-22 03:00:00 TS 10.7999 86.3917 main 610 581 P________PO___ IO101968 10.7999 86.3875 -1 10.7999 86.3875 TC 25 10.8000 86.4000 1 5 270
1968295N11089 1968 109 NI BB NOT_NAMED 1968-10-22 06:00:00 TS 10.7974 86.0831 main 581 543 O________OP___ jtwc_io IO101968 10.8000 86.1000 -1 10.8000 86.1000 TC 25 10.7921 86.0493 1 7 270
1968295N11089 1968 109 NI BB NOT_NAMED 1968-10-22 09:00:00 TS 10.7951 85.6633 main 543 496 P________PP___ IO101968 10.8001 85.6725 -1 10.8001 85.6725 TC 25 10.7853 85.6449 1 9 270
1968295N11089 1968 109 NI BB NOT_NAMED 1968-10-22 12:00:00 TS 10.7953 85.2060 main 496 459 O________OP___ jtwc_io IO101968 10.8000 85.2000 -1 10.8000 85.2000 TC 25 10.7858 85.2180 1 9 270
1968295N11089 1968 109 NI BB NOT_NAMED 1968-10-22 15:00:00 TS 10.7950 84.7900 main 459 422 P________PO___ IO101968 10.7924 84.7850 -1 10.7924 84.7850 TC 25 10.8000 84.8000 1 8 270
1968295N11089 1968 109 NI BB NOT_NAMED 1968-10-22 18:00:00 TS 10.8011 84.3983 main 422 386 O________OP___ jtwc_io IO101968 10.8000 84.4000 -1 10.8000 84.4000 TC 25 10.8032 84.3950 1 8 272
1968295N11089 1968 109 NI BB NOT_NAMED 1968-10-22 21:00:00 TS 10.8267 84.0216 main 386 364 P________PP___ IO101968 10.8275 84.0275 -1 10.8275 84.0275 TC 30 10.8251 84.0100 1 7 278
1968295N11089 1968 109 NI BB NOT_NAMED 1968-10-23 00:00:00 TS 10.8948 83.6900 main 364 342 O________OP___ jtwc_io IO101968 10.9000 83.7000 -1 10.9000 83.7000 TC 35 10.8845 83.6700 1 6 287
1968295N11089 1968 109 NI BB NOT_NAMED 1968-10-23 03:00:00 TS 11.0083 83.4083 main 342 331 P________PO___ IO101968 11.0125 83.4125 -1 11.0125 83.4125 TC 35 11.0000 83.4000 2 6 303
1968295N11089 1968 109 NI BB NOT_NAMED 1968-10-23 06:00:00 TS 11.2001 83.2053 main 338 334 O________OP___ jtwc_io IO101968 11.2000 83.2000 -1 11.2000 83.2000 TC 35 11.2004 83.2160 2 6 325
1968295N11089 1968 109 NI BB NOT_NAMED 1968-10-23 09:00:00 TS 11.4799 83.0758 main 334 314 P________PP___ IO101968 11.4925 83.0625 -1 11.4925 83.0625 TC 50 11.4547 83.1025 2 6 342
1968295N11089 1968 109 NI BB NOT_NAMED 1968-10-23 12:00:00 TS 11.7772 83.0126 main 314 309 O________OP___ jtwc_io IO101968 11.8000 83.0000 -1 11.8000 83.0000 TC 65 11.7317 83.0378 2 5 351
1968295N11089 1968 109 NI BB NOT_NAMED 1968-10-23 15:00:00 TS 12.0100 82.9950 main 309 306 P________PO___ IO101968 12.0150 82.9924 -1 12.0150 82.9924 TC 65 12.0000 83.0000 4 4 355
1968295N11089 1968 109 NI BB NOT_NAMED 1968-10-23 18:00:00 TS 12.2034 82.9831 main 306 293 O________OP___ jtwc_io IO101968 12.2000 83.0000 -1 12.2000 83.0000 TC 65 12.2103 82.9493 4 4 353
1968295N11089 1968 109 NI BB NOT_NAMED 1968-10-23 21:00:00 TS 12.4025 82.9400 main 293 292 P________PP___ IO101968 12.4000 82.9500 -1 12.4000 82.9500 TC 65 12.4075 82.9199 4 4 348
1968295N11089 1968 109 NI BB NOT_NAMED 1968-10-24 00:00:00 TS 12.6003 82.9019 main 292 287 O________OP___ jtwc_io IO101968 12.6000 82.9000 -1 12.6000 82.9000 TC 65 12.6009 82.9056 4 4 356
1968295N11089 1968 109 NI BB NOT_NAMED 1968-10-24 03:00:00 TS 12.7950 82.8950 main 287 283 P________PO___ IO101968 12.7925 82.8925 -1 12.7925 82.8925 TC 65 12.8000 82.9000 4 4 358
1968295N11089 1968 109 NI BB NOT_NAMED 1968-10-24 06:00:00 TS 13.0073 82.8976 main 283 281 O________OP___ jtwc_io IO101968 13.0000 82.9000 -1 13.0000 82.9000 TC 65 13.0219 82.8928 4 5 0
1968295N11089 1968 109 NI BB NOT_NAMED 1968-10-24 09:00:00 TS 13.2500 82.8975 main 281 281 P________PP___ IO101968 13.2500 82.9000 -1 13.2500 82.9000 TC 65 13.2500 82.8925 4 5 3
1968295N11089 1968 109 NI BB NOT_NAMED 1968-10-24 12:00:00 TS 13.4927 82.8986 main 281 281 O________OP___ jtwc_io IO101968 13.5000 82.9000 -1 13.5000 82.9000 TC 65 13.4781 82.8959 4 5 0
1968295N11089 1968 109 NI BB NOT_NAMED 1968-10-24 15:00:00 TS 13.7050 82.9000 main 281 280 P________PO___ IO101968 13.7075 82.9000 -1 13.7075 82.9000 TC 65 13.7000 82.9000 4 4 0
1968295N11089 1968 109 NI BB NOT_NAMED 1968-10-24 18:00:00 TS 13.8983 82.8933 main 281 277 O________OP___ jtwc_io IO101968 13.9000 82.9000 -1 13.9000 82.9000 TC 65 13.8950 82.8798 4 4 0
1968295N11089 1968 109 NI BB NOT_NAMED 1968-10-24 21:00:00 TS 14.0950 82.8826 main 277 258 P________PP___ IO101968 14.1000 82.8925 -1 14.1000 82.8925 TC 65 14.0850 82.8628 4 4 0
1968295N11089 1968 109 NI BB NOT_NAMED 1968-10-25 00:00:00 TS 14.2942 82.8881 main 258 238 O________OP___ jtwc_io IO101968 14.3000 82.9000 -1 14.3000 82.9000 TC 65 14.2825 82.8643 4 4 7
1968295N11089 1968 109 NI BB NOT_NAMED 1968-10-25 03:00:00 TS 14.4900 82.9184 main 238 223 P________PO___ IO101968 14.4850 82.9276 -1 14.4850 82.9276 TC 65 14.5000 82.9000 4 4 14
1968295N11089 1968 109 NI BB NOT_NAMED 1968-10-25 06:00:00 TS 14.7273 82.9990 main 223 198 O________OP___ jtwc_io IO101968 14.7000 83.0000 -1 14.7000 83.0000 TC 65 14.7819 82.9969 4 6 22
1968295N11089 1968 109 NI BB NOT_NAMED 1968-10-25 09:00:00 TS 15.0217 83.1373 main 198 180 P________PP___ IO101968 14.9925 83.1424 -1 14.9925 83.1424 TC 65 15.0801 83.1271 4 7 25
1968295N11089 1968 109 NI BB NOT_NAMED 1968-10-25 12:00:00 TS 15.3211 83.2896 main 180 162 O________OP___ jtwc_io IO101968 15.3000 83.3000 -1 15.3000 83.3000 TC 65 15.3632 83.2688 4 6 24
1968295N11089 1968 109 NI BB NOT_NAMED 1968-10-25 15:00:00 TS 15.5967 83.4100 main 162 154 P________PO___ IO101968 15.5950 83.4150 -1 15.5950 83.4150 TC 65 15.6000 83.4000 4 5 23
1968295N11089 1968 109 NI BB NOT_NAMED 1968-10-25 18:00:00 TS 15.7672 83.4899 main 156 156 O________OP___ jtwc_io IO101968 15.8000 83.5000 -1 15.8000 83.5000 TC 65 15.7015 83.4696 4 2 33
1968295N11089 1968 109 NI BB NOT_NAMED 1968-10-25 21:00:00 TS 15.7874 83.5378 main 156 156 P________PP___ IO101968 15.8000 83.5426 -1 15.8000 83.5426 TC 65 15.7623 83.5283 4 1 65
1968295N11089 1968 109 NI BB NOT_NAMED 1968-10-26 00:00:00 TS 15.8140 83.5993 main 165 159 O________OP___ jtwc_io IO101968 15.8000 83.6000 -1 15.8000 83.6000 TC 65 15.8421 83.5978 4 3 42
1968295N11089 1968 109 NI BB NOT_NAMED 1968-10-26 03:00:00 TS 15.9833 83.7184 main 163 163 P________PO___ IO101968 15.9750 83.7276 -1 15.9750 83.7276 TC 65 16.0000 83.7000 4 6 29
1968295N11089 1968 109 NI BB NOT_NAMED 1968-10-26 06:00:00 TS 16.3141 83.8905 main 163 130 O________OP___ jtwc_io IO101968 16.3000 83.9000 -1 16.3000 83.9000 TC 65 16.3423 83.8716 4 9 24
1968295N11089 1968 109 NI BB NOT_NAMED 1968-10-26 09:00:00 TS 16.7876 84.0871 main 130 115 P________PP___ IO101968 16.8000 84.0923 -1 16.8000 84.0923 TC 65 16.7627 84.0766 4 10 22
1968295N11089 1968 109 NI BB NOT_NAMED 1968-10-26 12:00:00 TS 17.2672 84.2978 main 107 89 O________OP___ jtwc_io IO101968 17.3000 84.3000 -1 17.3000 84.3000 TC 65 17.2017 84.2934 4 9 26
1968295N11089 1968 109 NI BB NOT_NAMED 1968-10-26 15:00:00 TS 17.5917 84.5051 main 89 76 P________PO___ IO101968 17.5875 84.5076 -1 17.5875 84.5076 TC 65 17.6000 84.5000 4 7 34
1968295N11089 1968 109 NI BB NOT_NAMED 1968-10-26 18:00:00 TS 17.8278 84.6923 main 84 69 O________OP___ jtwc_io IO101968 17.8000 84.7000 -1 17.8000 84.7000 TC 65 17.8834 84.6769 4 6 35
1968295N11089 1968 109 NI BB NOT_NAMED 1968-10-26 21:00:00 TS 18.0775 84.8560 main 76 69 P________PP___ IO101968 18.0575 84.8650 -1 18.0575 84.8650 TC 65 18.1174 84.8378 4 6 31
1968295N11089 1968 109 NI BB NOT_NAMED 1968-10-27 00:00:00 TS 18.3059 84.9933 main 69 61 O________OP___ jtwc_io IO101968 18.3000 85.0000 -1 18.3000 85.0000 TC 65 18.3178 84.9799 4 5 29
1968295N11089 1968 109 NI BB NOT_NAMED 1968-10-27 03:00:00 TS 18.5100 85.1100 main 62 57 P________PO___ IO101968 18.5150 85.1150 -1 18.5150 85.1150 TC 50 18.5000 85.1000 4 4 26
1968295N11089 1968 109 NI BB NOT_NAMED 1968-10-27 06:00:00 TS 18.7005 85.1989 main 62 57 O________OP___ jtwc_io IO101968 18.7000 85.2000 -1 18.7000 85.2000 TC 35 18.7015 85.1967 4 4 21
1968295N11089 1968 109 NI BB NOT_NAMED 1968-10-27 09:00:00 TS 18.8675 85.2576 main 61 53 P________PP___ IO101968 18.8575 85.2501 -1 18.8575 85.2501 TC 35 18.8874 85.2727 4 3 18
1968295N11089 1968 109 NI BB NOT_NAMED 1968-10-27 12:00:00 TS 19.0182 85.3124 main 53 39 O________OP___ jtwc_io IO101968 19.0000 85.3000 -1 19.0000 85.3000 TC 35 19.0546 85.3373 4 3 24
1968295N11089 1968 109 NI BB NOT_NAMED 1968-10-27 15:00:00 TS 19.1717 85.4000 main 39 35 P________PO___ IO101968 19.1575 85.4000 -1 19.1575 85.4000 TC 30 19.2000 85.4000 2 3 29
1968295N11089 1968 109 NI BB NOT_NAMED 1968-10-27 18:00:00 TS 19.3088 85.4873 main 35 24 O________OP___ jtwc_io IO101968 19.3000 85.5000 -1 19.3000 85.5000 TC 25 19.3219 85.4684 2 3 30
1968295N11089 1968 109 NI BB NOT_NAMED 1968-10-27 21:00:00 TS 19.4165 85.5539 main 30 23 P________PP___ IO101968 19.4100 85.5625 -1 19.4100 85.5625 TC 25 19.4251 85.5424 2 2 30
1968295N11089 1968 109 NI BB NOT_NAMED 1968-10-28 00:00:00 TS 19.5078 85.6101 main 23 22 O________OP___ jtwc_io IO101968 19.5000 85.6000 -1 19.5000 85.6000 TC 25 19.5157 85.6202 2 2 37
1968295N11089 1968 109 NI BB NOT_NAMED 1968-10-28 03:00:00 NR 19.6000 85.7000 main 22 __________O___ IO101968 -1 TC 19.6000 85.7000 1 3 43

About IBTrACS Database

This database is a web-friendly format of International Best Track Archive for Climate Stewardship (IBTrACS), a global best track data archive curated by NOAA dating back to 1842.

Updated: 2021-12-08